Time,TemperatureF,DewpointF,PressureIn,WindDirection,WindDirectionDegrees,WindSpeedMPH,WindSpeedGustMPH,Humidity,HourlyPrecipIn,Conditions,Clouds,dailyrainin,SoftwareType,DateUTC
2013-08-23 00:08:00,72.7,70.0,30.03,SSE,155,0.0,0.0,91,0.00,,,0.00,weatherlink.com 1.10,2013-08-23 04:08:00,
2013-08-23 00:23:00,72.5,70.0,30.03,SSE,155,0.0,0.0,92,0.00,,,0.00,weatherlink.com 1.10,2013-08-23 04:23:00,
2013-08-23 00:38:00,72.3,70.0,30.03,SSE,155,0.0,0.0,92,0.00,,,0.00,weatherlink.com 1.10,2013-08-23 04:38:00,
2013-08-23 00:53:00,72.1,70.0,30.02,SSE,155,0.0,0.0,92,0.00,,,0.00,weatherlink.com 1.10,2013-08-23 04:53:00,
2013-08-23 01:08:00,71.8,69.0,30.01,SSE,155,0.0,0.0,92,0.00,,,0.00,weatherlink.com 1.10,2013-08-23 05:08:00,
2013-08-23 01:23:00,71.3,69.0,30.01,SSE,155,0.0,0.0,92,0.00,,,0.00,weatherlink.com 1.10,2013-08-23 05:23:00,
2013-08-23 01:38:00,70.9,69.0,30.01,SSE,155,0.0,0.0,92,0.00,,,0.00,weatherlink.com 1.10,2013-08-23 05:38:00,
2013-08-23 01:53:00,70.4,68.0,30.00,SSE,155,0.0,0.0,92,0.00,,,0.00,weatherlink.com 1.10,2013-08-23 05:53:00,
2013-08-23 02:08:00,70.1,68.0,29.99,SSE,155,0.0,0.0,93,0.00,,,0.00,weatherlink.com 1.10,2013-08-23 06:08:00,
2013-08-23 02:23:00,69.9,68.0,29.98,SSE,155,0.0,0.0,94,0.00,,,0.00,weatherlink.com 1.10,2013-08-23 06:23:00,
2013-08-23 02:38:00,69.8,68.0,29.98,SSE,155,0.0,0.0,95,0.00,,,0.00,weatherlink.com 1.10,2013-08-23 06:38:00,
2013-08-23 02:53:00,69.4,68.0,29.97,SSE,155,0.0,0.0,95,0.00,,,0.00,weatherlink.com 1.10,2013-08-23 06:53:00,
2013-08-23 03:08:00,69.3,68.0,29.97,SSE,155,0.0,0.0,95,0.00,,,0.00,weatherlink.com 1.10,2013-08-23 07:08:00,
2013-08-23 03:23:00,68.9,68.0,29.96,SSE,155,0.0,0.0,95,0.00,,,0.00,weatherlink.com 1.10,2013-08-23 07:23:00,
2013-08-23 03:38:00,68.9,68.0,29.96,SSE,155,0.0,0.0,96,0.00,,,0.00,weatherlink.com 1.10,2013-08-23 07:38:00,
2013-08-23 03:53:00,68.8,68.0,29.95,SSE,155,0.0,0.0,96,0.00,,,0.00,weatherlink.com 1.10,2013-08-23 07:53:00,
2013-08-23 04:08:00,68.6,68.0,29.95,SSE,155,0.0,0.0,96,0.00,,,0.00,weatherlink.com 1.10,2013-08-23 08:08:00,
2013-08-23 04:23:00,68.4,67.0,29.95,SSE,155,0.0,0.0,96,0.00,,,0.00,weatherlink.com 1.10,2013-08-23 08:23:00,
2013-08-23 04:38:00,68.4,67.0,29.95,SSE,155,0.0,0.0,96,0.00,,,0.00,weatherlink.com 1.10,2013-08-23 08:38:00,
2013-08-23 04:53:00,68.4,68.0,29.95,SSE,155,0.0,0.0,97,0.00,,,0.00,weatherlink.com 1.10,2013-08-23 08:53:00,
2013-08-23 05:08:00,68.4,68.0,29.95,SSE,155,0.0,0.0,97,0.00,,,0.00,weatherlink.com 1.10,2013-08-23 09:08:00,
2013-08-23 05:23:00,68.3,68.0,29.96,SSE,155,0.0,0.0,97,0.00,,,0.00,weatherlink.com 1.10,2013-08-23 09:23:00,
2013-08-23 05:38:00,68.1,67.0,29.96,SSE,155,0.0,0.0,97,0.00,,,0.00,weatherlink.com 1.10,2013-08-23 09:38:00,
2013-08-23 05:53:00,68.3,68.0,29.97,SSE,155,0.0,0.0,98,0.00,,,0.00,weatherlink.com 1.10,2013-08-23 09:53:00,
2013-08-23 06:08:00,68.9,68.0,29.97,SSE,155,0.0,0.0,98,0.00,,,0.00,weatherlink.com 1.10,2013-08-23 10:08:00,
2013-08-23 06:23:00,69.6,69.0,29.97,SSE,155,0.0,0.0,99,0.00,,,0.00,weatherlink.com 1.10,2013-08-23 10:23:00,
2013-08-23 06:38:00,69.9,70.0,29.98,SSE,155,0.0,0.0,99,0.00,,,0.00,weatherlink.com 1.10,2013-08-23 10:38:00,
2013-08-23 06:53:00,69.9,70.0,29.98,SSE,155,0.0,0.0,99,0.00,,,0.00,weatherlink.com 1.10,2013-08-23 10:53:00,
2013-08-23 07:08:00,70.1,70.0,29.98,SSE,155,0.0,0.0,99,0.00,,,0.00,weatherlink.com 1.10,2013-08-23 11:08:00,
2013-08-23 07:23:00,70.1,70.0,29.99,SSE,155,0.0,0.0,99,0.00,,,0.00,weatherlink.com 1.10,2013-08-23 11:23:00,
2013-08-23 07:38:00,70.1,70.0,29.99,SSE,155,0.0,0.0,99,0.00,,,0.00,weatherlink.com 1.10,2013-08-23 11:38:00,
2013-08-23 07:53:00,70.1,70.0,30.00,SSE,155,0.0,0.0,99,0.00,,,0.00,weatherlink.com 1.10,2013-08-23 11:53:00,
2013-08-23 08:08:00,70.3,70.0,30.00,SSE,155,0.0,0.0,99,0.00,,,0.00,weatherlink.com 1.10,2013-08-23 12:08:00,
2013-08-23 08:23:00,70.4,70.0,30.00,SSE,155,0.0,1.0,99,0.00,,,0.00,weatherlink.com 1.10,2013-08-23 12:23:00,
2013-08-23 08:38:00,70.6,70.0,30.01,East,81,0.0,1.0,99,0.00,,,0.00,weatherlink.com 1.10,2013-08-23 12:38:00,
2013-08-23 08:53:00,70.9,70.0,30.01,East,81,0.0,1.0,98,0.00,,,0.00,weatherlink.com 1.10,2013-08-23 12:53:00,
2013-08-23 09:08:00,71.5,71.0,30.01,East,81,0.0,0.0,98,0.00,,,0.00,weatherlink.com 1.10,2013-08-23 13:08:00,
2013-08-23 09:23:00,72.1,71.0,30.01,East,81,0.0,1.0,96,0.00,,,0.00,weatherlink.com 1.10,2013-08-23 13:23:00,
2013-08-23 09:38:00,74.0,71.0,30.01,East,81,0.0,1.0,91,0.00,,,0.00,weatherlink.com 1.10,2013-08-23 13:38:00,
2013-08-23 09:53:00,75.3,72.0,30.01,NE,40,0.0,1.0,88,0.00,,,0.00,weatherlink.com 1.10,2013-08-23 13:53:00,
2013-08-23 10:08:00,76.7,71.0,30.01,ENE,74,0.0,1.0,82,0.00,,,0.00,weatherlink.com 1.10,2013-08-23 14:08:00,
2013-08-23 10:24:00,78.1,71.0,30.01,SE,145,0.0,2.0,79,0.00,,,0.00,weatherlink.com 1.10,2013-08-23 14:24:00,
2013-08-23 10:39:00,79.4,72.0,30.01,SE,146,0.0,1.0,77,0.00,,,0.00,weatherlink.com 1.10,2013-08-23 14:39:00,
2013-08-23 10:54:00,80.3,70.0,30.02,SE,140,0.0,1.0,70,0.00,,,0.00,weatherlink.com 1.10,2013-08-23 14:54:00,
2013-08-23 11:09:00,81.4,71.0,30.01,SE,136,0.0,2.0,71,0.00,,,0.00,weatherlink.com 1.10,2013-08-23 15:09:00,
2013-08-23 11:24:00,82.4,71.0,30.01,SE,135,0.0,1.0,68,0.00,,,0.00,weatherlink.com 1.10,2013-08-23 15:24:00,
2013-08-23 11:39:00,83.2,70.0,30.01,SE,133,0.0,1.0,65,0.00,,,0.00,weatherlink.com 1.10,2013-08-23 15:39:00,
2013-08-23 11:54:00,83.4,69.0,30.01,SE,133,0.0,1.0,62,0.00,,,0.00,weatherlink.com 1.10,2013-08-23 15:54:00,
2013-08-23 12:09:00,84.0,70.0,30.00,East,101,0.0,2.0,62,0.00,,,0.00,weatherlink.com 1.10,2013-08-23 16:09:00,
2013-08-23 12:24:00,84.9,69.0,30.00,SW,215,1.0,2.0,60,0.00,,,0.00,weatherlink.com 1.10,2013-08-23 16:24:00,
2013-08-23 12:39:00,86.1,69.0,30.00,NNE,23,0.0,2.0,56,0.00,,,0.00,weatherlink.com 1.10,2013-08-23 16:39:00,
2013-08-23 12:54:00,86.3,68.0,29.99,East,94,0.0,3.0,54,0.00,,,0.00,weatherlink.com 1.10,2013-08-23 16:54:00,
2013-08-23 13:09:00,87.0,67.0,29.99,ENE,78,0.0,4.0,51,0.00,,,0.00,weatherlink.com 1.10,2013-08-23 17:09:00,
2013-08-23 13:24:00,87.4,67.0,29.98,ENE,65,0.0,3.0,50,0.00,,,0.00,weatherlink.com 1.10,2013-08-23 17:24:00,
2013-08-23 13:39:00,88.0,68.0,29.98,East,81,1.0,1.0,52,0.00,,,0.00,weatherlink.com 1.10,2013-08-23 17:39:00,
2013-08-23 13:54:00,88.8,67.0,29.97,SE,141,0.0,3.0,49,0.00,,,0.00,weatherlink.com 1.10,2013-08-23 17:54:00,
2013-08-23 14:09:00,89.9,68.0,29.96,SSE,167,0.0,2.0,48,0.00,,,0.00,weatherlink.com 1.10,2013-08-23 18:09:00,
2013-08-23 14:24:00,88.2,68.0,29.96,SSE,167,0.0,0.0,52,0.00,,,0.00,weatherlink.com 1.10,2013-08-23 18:24:00,
2013-08-23 14:39:00,87.4,67.0,29.96,SE,125,0.0,2.0,51,0.00,,,0.00,weatherlink.com 1.10,2013-08-23 18:39:00,
2013-08-23 14:54:00,87.8,67.0,29.96,SW,235,0.0,2.0,51,0.00,,,0.00,weatherlink.com 1.10,2013-08-23 18:54:00,
2013-08-23 15:09:00,87.4,69.0,29.96,SW,227,0.0,1.0,54,0.00,,,0.00,weatherlink.com 1.10,2013-08-23 19:09:00,
2013-08-23 15:24:00,86.1,70.0,29.95,SW,227,0.0,0.0,58,0.00,,,0.00,weatherlink.com 1.10,2013-08-23 19:24:00,
2013-08-23 15:39:00,83.0,66.0,29.94,West,273,3.0,7.0,57,0.00,,,0.00,weatherlink.com 1.10,2013-08-23 19:39:00,
2013-08-23 15:54:00,81.8,66.0,29.95,ENE,78,0.0,6.0,60,0.00,,,0.00,weatherlink.com 1.10,2013-08-23 19:54:00,
2013-08-23 16:09:00,82.4,67.0,29.94,WSW,241,0.0,2.0,60,0.00,,,0.00,weatherlink.com 1.10,2013-08-23 20:09:00,
2013-08-23 16:24:00,81.8,67.0,29.93,ENE,72,0.0,4.0,62,0.00,,,0.00,weatherlink.com 1.10,2013-08-23 20:24:00,
2013-08-23 16:39:00,80.9,68.0,29.93,NW,323,0.0,4.0,66,0.00,,,0.00,weatherlink.com 1.10,2013-08-23 20:39:00,
2013-08-23 16:54:00,80.7,68.0,29.93,WNW,292,0.0,2.0,66,0.00,,,0.00,weatherlink.com 1.10,2013-08-23 20:54:00,
2013-08-23 17:09:00,80.7,69.0,29.93,WNW,292,0.0,0.0,68,0.00,,,0.00,weatherlink.com 1.10,2013-08-23 21:09:00,
2013-08-23 17:24:00,79.8,69.0,29.93,WNW,292,0.0,0.0,69,0.00,,,0.00,weatherlink.com 1.10,2013-08-23 21:24:00,
2013-08-23 17:39:00,79.0,69.0,29.94,WNW,292,0.0,0.0,71,0.00,,,0.00,weatherlink.com 1.10,2013-08-23 21:39:00,
2013-08-23 17:54:00,78.1,70.0,29.94,WNW,292,0.0,0.0,76,0.00,,,0.00,weatherlink.com 1.10,2013-08-23 21:54:00,
2013-08-23 18:09:00,77.4,70.0,29.94,WNW,292,0.0,0.0,77,0.00,,,0.00,weatherlink.com 1.10,2013-08-23 22:09:00,
2013-08-23 18:24:00,76.7,69.0,29.94,WNW,292,0.0,0.0,77,0.00,,,0.00,weatherlink.com 1.10,2013-08-23 22:24:00,
2013-08-23 18:39:00,76.5,70.0,29.94,WNW,292,0.0,0.0,79,0.00,,,0.00,weatherlink.com 1.10,2013-08-23 22:39:00,
2013-08-23 18:54:00,76.3,70.0,29.94,WNW,292,0.0,0.0,80,0.00,,,0.00,weatherlink.com 1.10,2013-08-23 22:54:00,
2013-08-23 19:09:00,75.8,69.0,29.94,WNW,292,0.0,0.0,80,0.00,,,0.00,weatherlink.com 1.10,2013-08-23 23:09:00,
2013-08-23 19:24:00,75.4,69.0,29.94,WNW,292,0.0,0.0,80,0.00,,,0.00,weatherlink.com 1.10,2013-08-23 23:24:00,
2013-08-23 19:39:00,75.3,69.0,29.95,WNW,292,0.0,0.0,80,0.00,,,0.00,weatherlink.com 1.10,2013-08-23 23:39:00,
2013-08-23 19:54:00,74.9,68.0,29.97,WNW,292,0.0,0.0,80,0.00,,,0.00,weatherlink.com 1.10,2013-08-23 23:54:00,
2013-08-23 20:09:00,74.6,68.0,29.97,WNW,292,0.0,1.0,81,0.00,,,0.00,weatherlink.com 1.10,2013-08-24 00:09:00,
2013-08-23 20:24:00,74.0,68.0,29.97,WNW,292,0.0,0.0,81,0.00,,,0.00,weatherlink.com 1.10,2013-08-24 00:24:00,
2013-08-23 20:39:00,73.7,68.0,29.98,WNW,292,0.0,0.0,83,0.00,,,0.00,weatherlink.com 1.10,2013-08-24 00:39:00,
2013-08-23 20:54:00,73.3,68.0,29.98,WNW,292,0.0,0.0,82,0.00,,,0.00,weatherlink.com 1.10,2013-08-24 00:54:00,
2013-08-23 21:09:00,73.2,68.0,29.98,WNW,292,0.0,0.0,84,0.00,,,0.00,weatherlink.com 1.10,2013-08-24 01:09:00,
2013-08-23 21:24:00,72.7,68.0,29.99,WNW,292,0.0,0.0,85,0.00,,,0.00,weatherlink.com 1.10,2013-08-24 01:24:00,
2013-08-23 21:39:00,72.3,68.0,30.00,WNW,292,0.0,0.0,86,0.00,,,0.00,weatherlink.com 1.10,2013-08-24 01:39:00,
2013-08-23 21:54:00,72.0,68.0,30.01,WNW,292,0.0,0.0,87,0.00,,,0.00,weatherlink.com 1.10,2013-08-24 01:54:00,
2013-08-23 22:09:00,71.6,68.0,30.01,WNW,292,0.0,0.0,88,0.00,,,0.00,weatherlink.com 1.10,2013-08-24 02:09:00,
2013-08-23 22:24:00,71.3,68.0,30.00,WNW,292,0.0,0.0,89,0.00,,,0.00,weatherlink.com 1.10,2013-08-24 02:24:00,
2013-08-23 22:39:00,71.1,68.0,30.00,WNW,292,0.0,0.0,90,0.00,,,0.00,weatherlink.com 1.10,2013-08-24 02:39:00,
2013-08-23 22:54:00,70.9,68.0,30.00,WNW,292,0.0,0.0,91,0.00,,,0.00,weatherlink.com 1.10,2013-08-24 02:54:00,
2013-08-23 23:09:00,71.1,68.0,30.02,NW,315,0.0,0.0,91,0.00,,,0.00,weatherlink.com 1.10,2013-08-24 03:09:00,
2013-08-23 23:24:00,71.5,68.0,30.02,North,9,0.0,1.0,89,0.00,,,0.00,weatherlink.com 1.10,2013-08-24 03:24:00,
2013-08-23 23:39:00,71.5,68.0,30.03,North,9,0.0,0.0,88,0.00,,,0.00,weatherlink.com 1.10,2013-08-24 03:39:00,
2013-08-23 23:54:00,71.6,68.0,30.03,East,92,0.0,2.0,88,0.00,,,0.00,weatherlink.com 1.10,2013-08-24 03:54:00,